sensor_id;sensor_type;location;lat;lon;timestamp;P1;durP1;ratioP1;P2;durP2;ratioP2
13349;SDS011;6744;53.190;6.576;2022-12-18T00:01:44;49.00;;;28.40;;
13349;SDS011;6744;53.190;6.576;2022-12-18T00:04:16;48.80;;;27.40;;
13349;SDS011;6744;53.190;6.576;2022-12-18T00:06:45;46.57;;;26.30;;
13349;SDS011;6744;53.190;6.576;2022-12-18T00:09:10;47.40;;;27.03;;
13349;SDS011;6744;53.190;6.576;2022-12-18T00:11:35;49.33;;;26.70;;
13349;SDS011;6744;53.190;6.576;2022-12-18T00:14:01;46.93;;;27.90;;
13349;SDS011;6744;53.190;6.576;2022-12-18T00:16:26;47.10;;;26.67;;
13349;SDS011;6744;53.190;6.576;2022-12-18T00:18:54;52.77;;;28.13;;
13349;SDS011;6744;53.190;6.576;2022-12-18T00:21:23;45.70;;;26.33;;
13349;SDS011;6744;53.190;6.576;2022-12-18T00:23:49;44.43;;;25.73;;
13349;SDS011;6744;53.190;6.576;2022-12-18T00:26:16;47.70;;;26.13;;
13349;SDS011;6744;53.190;6.576;2022-12-18T00:28:43;49.07;;;27.00;;
13349;SDS011;6744;53.190;6.576;2022-12-18T00:31:09;49.40;;;27.33;;
13349;SDS011;6744;53.190;6.576;2022-12-18T00:33:36;50.73;;;27.97;;
13349;SDS011;6744;53.190;6.576;2022-12-18T00:36:15;50.43;;;27.50;;
13349;SDS011;6744;53.190;6.576;2022-12-18T00:38:45;49.03;;;26.20;;
13349;SDS011;6744;53.190;6.576;2022-12-18T00:41:11;44.17;;;25.67;;
13349;SDS011;6744;53.190;6.576;2022-12-18T00:43:38;47.43;;;27.20;;
13349;SDS011;6744;53.190;6.576;2022-12-18T00:46:03;47.17;;;26.60;;
13349;SDS011;6744;53.190;6.576;2022-12-18T00:48:29;45.50;;;25.27;;
13349;SDS011;6744;53.190;6.576;2022-12-18T00:50:55;44.30;;;24.50;;
13349;SDS011;6744;53.190;6.576;2022-12-18T00:53:20;45.77;;;25.97;;
13349;SDS011;6744;53.190;6.576;2022-12-18T00:55:46;42.67;;;24.63;;
13349;SDS011;6744;53.190;6.576;2022-12-18T00:58:12;41.23;;;24.43;;
13349;SDS011;6744;53.190;6.576;2022-12-18T01:00:38;44.33;;;24.83;;
13349;SDS011;6744;53.190;6.576;2022-12-18T01:03:03;42.40;;;23.87;;
13349;SDS011;6744;53.190;6.576;2022-12-18T01:05:29;39.60;;;24.00;;
13349;SDS011;6744;53.190;6.576;2022-12-18T01:07:55;44.67;;;24.50;;
13349;SDS011;6744;53.190;6.576;2022-12-18T01:10:21;41.97;;;24.70;;
13349;SDS011;6744;53.190;6.576;2022-12-18T01:12:47;43.07;;;24.77;;
13349;SDS011;6744;53.190;6.576;2022-12-18T01:15:13;49.07;;;27.37;;
13349;SDS011;6744;53.190;6.576;2022-12-18T01:17:39;54.37;;;27.00;;
13349;SDS011;6744;53.190;6.576;2022-12-18T01:20:04;52.33;;;27.17;;
13349;SDS011;6744;53.190;6.576;2022-12-18T01:22:30;48.43;;;27.20;;
13349;SDS011;6744;53.190;6.576;2022-12-18T01:24:58;48.57;;;26.23;;
13349;SDS011;6744;53.190;6.576;2022-12-18T01:27:23;45.73;;;26.13;;
13349;SDS011;6744;53.190;6.576;2022-12-18T01:29:49;47.13;;;24.47;;
13349;SDS011;6744;53.190;6.576;2022-12-18T01:32:14;44.73;;;25.13;;
13349;SDS011;6744;53.190;6.576;2022-12-18T01:34:39;45.13;;;24.63;;
13349;SDS011;6744;53.190;6.576;2022-12-18T01:37:05;40.77;;;23.90;;
13349;SDS011;6744;53.190;6.576;2022-12-18T01:39:31;41.60;;;23.97;;
13349;SDS011;6744;53.190;6.576;2022-12-18T01:41:57;48.50;;;25.33;;
13349;SDS011;6744;53.190;6.576;2022-12-18T01:50:04;39.80;;;23.27;;
13349;SDS011;6744;53.190;6.576;2022-12-18T01:52:32;42.40;;;24.47;;
13349;SDS011;6744;53.190;6.576;2022-12-18T01:54:58;39.87;;;23.33;;
13349;SDS011;6744;53.190;6.576;2022-12-18T01:57:24;39.57;;;23.13;;
13349;SDS011;6744;53.190;6.576;2022-12-18T01:59:51;45.80;;;23.97;;
13349;SDS011;6744;53.190;6.576;2022-12-18T02:02:18;44.33;;;23.87;;
13349;SDS011;6744;53.190;6.576;2022-12-18T02:04:43;45.07;;;24.23;;
13349;SDS011;6744;53.190;6.576;2022-12-18T02:09:40;52.30;;;26.77;;
13349;SDS011;6744;53.190;6.576;2022-12-18T02:15:27;44.47;;;24.80;;
13349;SDS011;6744;53.190;6.576;2022-12-18T02:18:27;46.40;;;24.97;;
13349;SDS011;6744;53.190;6.576;2022-12-18T02:23:45;46.57;;;24.77;;
13349;SDS011;6744;53.190;6.576;2022-12-18T02:28:47;46.53;;;25.80;;
13349;SDS011;6744;53.190;6.576;2022-12-18T02:31:19;47.77;;;25.73;;
13349;SDS011;6744;53.190;6.576;2022-12-18T02:33:47;47.50;;;25.43;;
13349;SDS011;6744;53.190;6.576;2022-12-18T02:36:14;49.37;;;25.27;;
13349;SDS011;6744;53.190;6.576;2022-12-18T02:38:41;44.40;;;24.20;;
13349;SDS011;6744;53.190;6.576;2022-12-18T02:41:07;44.40;;;24.37;;
13349;SDS011;6744;53.190;6.576;2022-12-18T02:43:33;42.50;;;23.83;;
13349;SDS011;6744;53.190;6.576;2022-12-18T02:45:59;43.67;;;23.83;;
13349;SDS011;6744;53.190;6.576;2022-12-18T02:48:26;46.17;;;24.63;;
13349;SDS011;6744;53.190;6.576;2022-12-18T02:51:03;43.27;;;24.93;;
13349;SDS011;6744;53.190;6.576;2022-12-18T02:53:36;47.20;;;25.13;;
13349;SDS011;6744;53.190;6.576;2022-12-18T02:56:07;47.20;;;24.67;;
13349;SDS011;6744;53.190;6.576;2022-12-18T02:58:44;47.70;;;24.73;;
13349;SDS011;6744;53.190;6.576;2022-12-18T03:04:12;56.23;;;27.13;;
13349;SDS011;6744;53.190;6.576;2022-12-18T03:06:41;52.13;;;25.57;;
13349;SDS011;6744;53.190;6.576;2022-12-18T03:09:10;49.87;;;25.87;;
13349;SDS011;6744;53.190;6.576;2022-12-18T03:11:39;54.13;;;27.20;;
13349;SDS011;6744;53.190;6.576;2022-12-18T03:14:25;55.23;;;26.97;;
13349;SDS011;6744;53.190;6.576;2022-12-18T03:16:54;51.73;;;26.63;;
13349;SDS011;6744;53.190;6.576;2022-12-18T03:19:21;50.90;;;26.47;;
13349;SDS011;6744;53.190;6.576;2022-12-18T03:21:51;50.13;;;26.37;;
13349;SDS011;6744;53.190;6.576;2022-12-18T03:24:19;50.97;;;26.77;;
13349;SDS011;6744;53.190;6.576;2022-12-18T03:26:46;48.90;;;25.07;;
13349;SDS011;6744;53.190;6.576;2022-12-18T03:29:13;48.00;;;25.37;;
13349;SDS011;6744;53.190;6.576;2022-12-18T03:31:43;47.40;;;25.93;;
13349;SDS011;6744;53.190;6.576;2022-12-18T03:34:13;44.53;;;26.20;;
13349;SDS011;6744;53.190;6.576;2022-12-18T03:36:41;46.60;;;26.40;;
13349;SDS011;6744;53.190;6.576;2022-12-18T03:39:06;47.07;;;25.90;;
13349;SDS011;6744;53.190;6.576;2022-12-18T03:41:44;49.00;;;27.23;;
13349;SDS011;6744;53.190;6.576;2022-12-18T03:49:35;46.37;;;25.67;;
13349;SDS011;6744;53.190;6.576;2022-12-18T03:55:01;42.63;;;23.90;;
13349;SDS011;6744;53.190;6.576;2022-12-18T03:57:29;44.87;;;25.17;;
13349;SDS011;6744;53.190;6.576;2022-12-18T04:00:17;49.50;;;26.27;;
13349;SDS011;6744;53.190;6.576;2022-12-18T04:02:43;46.43;;;24.73;;
13349;SDS011;6744;53.190;6.576;2022-12-18T04:05:11;46.60;;;26.00;;
13349;SDS011;6744;53.190;6.576;2022-12-18T04:07:37;45.70;;;25.27;;
13349;SDS011;6744;53.190;6.576;2022-12-18T04:10:03;46.73;;;25.10;;
13349;SDS011;6744;53.190;6.576;2022-12-18T04:12:31;46.73;;;24.80;;
13349;SDS011;6744;53.190;6.576;2022-12-18T04:14:57;50.73;;;26.67;;
13349;SDS011;6744;53.190;6.576;2022-12-18T04:17:22;47.30;;;24.90;;
13349;SDS011;6744;53.190;6.576;2022-12-18T04:19:48;43.97;;;25.17;;
13349;SDS011;6744;53.190;6.576;2022-12-18T04:22:14;49.60;;;25.00;;
13349;SDS011;6744;53.190;6.576;2022-12-18T04:24:39;49.20;;;25.83;;
13349;SDS011;6744;53.190;6.576;2022-12-18T04:27:06;46.23;;;25.10;;
13349;SDS011;6744;53.190;6.576;2022-12-18T04:29:31;46.47;;;24.10;;
13349;SDS011;6744;53.190;6.576;2022-12-18T04:31:56;42.67;;;23.17;;
13349;SDS011;6744;53.190;6.576;2022-12-18T04:34:22;42.13;;;23.87;;
13349;SDS011;6744;53.190;6.576;2022-12-18T04:36:47;45.77;;;23.23;;
13349;SDS011;6744;53.190;6.576;2022-12-18T04:39:13;49.27;;;23.23;;
13349;SDS011;6744;53.190;6.576;2022-12-18T04:41:39;47.27;;;24.40;;
13349;SDS011;6744;53.190;6.576;2022-12-18T04:44:04;42.80;;;24.23;;
13349;SDS011;6744;53.190;6.576;2022-12-18T04:46:29;44.70;;;24.63;;
13349;SDS011;6744;53.190;6.576;2022-12-18T04:48:55;42.63;;;23.27;;
13349;SDS011;6744;53.190;6.576;2022-12-18T04:51:20;42.43;;;23.10;;
13349;SDS011;6744;53.190;6.576;2022-12-18T04:53:46;40.37;;;22.23;;
13349;SDS011;6744;53.190;6.576;2022-12-18T04:56:12;44.93;;;23.43;;
13349;SDS011;6744;53.190;6.576;2022-12-18T04:58:39;44.00;;;23.40;;
13349;SDS011;6744;53.190;6.576;2022-12-18T05:01:06;40.87;;;22.97;;
13349;SDS011;6744;53.190;6.576;2022-12-18T05:03:35;44.83;;;23.53;;
13349;SDS011;6744;53.190;6.576;2022-12-18T05:06:01;42.20;;;22.53;;
13349;SDS011;6744;53.190;6.576;2022-12-18T05:08:26;44.53;;;23.37;;
13349;SDS011;6744;53.190;6.576;2022-12-18T05:11:13;47.57;;;23.07;;
13349;SDS011;6744;53.190;6.576;2022-12-18T05:13:41;41.43;;;21.63;;
13349;SDS011;6744;53.190;6.576;2022-12-18T05:16:06;42.50;;;21.67;;
13349;SDS011;6744;53.190;6.576;2022-12-18T05:18:32;40.30;;;22.07;;
13349;SDS011;6744;53.190;6.576;2022-12-18T05:20:58;43.60;;;22.40;;
13349;SDS011;6744;53.190;6.576;2022-12-18T05:23:23;41.53;;;21.60;;
13349;SDS011;6744;53.190;6.576;2022-12-18T05:25:53;40.40;;;21.97;;
13349;SDS011;6744;53.190;6.576;2022-12-18T05:28:22;44.03;;;22.43;;
13349;SDS011;6744;53.190;6.576;2022-12-18T05:30:49;42.33;;;22.03;;
13349;SDS011;6744;53.190;6.576;2022-12-18T05:33:15;40.83;;;20.93;;
13349;SDS011;6744;53.190;6.576;2022-12-18T05:35:41;41.23;;;20.87;;
13349;SDS011;6744;53.190;6.576;2022-12-18T05:38:06;43.70;;;22.00;;
13349;SDS011;6744;53.190;6.576;2022-12-18T05:40:31;42.07;;;22.43;;
13349;SDS011;6744;53.190;6.576;2022-12-18T05:42:57;40.70;;;21.40;;
13349;SDS011;6744;53.190;6.576;2022-12-18T05:45:22;38.43;;;21.37;;
13349;SDS011;6744;53.190;6.576;2022-12-18T05:47:47;40.87;;;21.40;;
13349;SDS011;6744;53.190;6.576;2022-12-18T05:50:13;39.27;;;20.23;;
13349;SDS011;6744;53.190;6.576;2022-12-18T05:52:38;42.03;;;20.60;;
13349;SDS011;6744;53.190;6.576;2022-12-18T05:55:04;33.43;;;19.23;;
13349;SDS011;6744;53.190;6.576;2022-12-18T05:57:29;35.40;;;20.03;;
13349;SDS011;6744;53.190;6.576;2022-12-18T05:59:55;35.87;;;19.87;;
13349;SDS011;6744;53.190;6.576;2022-12-18T06:02:20;35.30;;;19.77;;
13349;SDS011;6744;53.190;6.576;2022-12-18T06:04:46;39.10;;;21.03;;
13349;SDS011;6744;53.190;6.576;2022-12-18T06:07:11;35.97;;;19.93;;
13349;SDS011;6744;53.190;6.576;2022-12-18T06:09:37;35.43;;;19.23;;
13349;SDS011;6744;53.190;6.576;2022-12-18T06:12:03;33.10;;;18.17;;
13349;SDS011;6744;53.190;6.576;2022-12-18T06:14:28;31.23;;;18.80;;
13349;SDS011;6744;53.190;6.576;2022-12-18T06:16:54;36.90;;;19.87;;
13349;SDS011;6744;53.190;6.576;2022-12-18T06:19:19;32.53;;;18.10;;
13349;SDS011;6744;53.190;6.576;2022-12-18T06:21:44;34.20;;;19.00;;
13349;SDS011;6744;53.190;6.576;2022-12-18T06:24:10;37.00;;;19.57;;
13349;SDS011;6744;53.190;6.576;2022-12-18T06:26:37;32.63;;;19.03;;
13349;SDS011;6744;53.190;6.576;2022-12-18T06:29:03;33.33;;;18.57;;
13349;SDS011;6744;53.190;6.576;2022-12-18T06:31:29;32.93;;;18.40;;
13349;SDS011;6744;53.190;6.576;2022-12-18T06:33:54;29.33;;;17.07;;
13349;SDS011;6744;53.190;6.576;2022-12-18T06:36:20;36.07;;;19.33;;
13349;SDS011;6744;53.190;6.576;2022-12-18T06:38:46;32.40;;;18.40;;
13349;SDS011;6744;53.190;6.576;2022-12-18T06:41:12;31.83;;;17.20;;
13349;SDS011;6744;53.190;6.576;2022-12-18T06:43:42;32.17;;;18.10;;
13349;SDS011;6744;53.190;6.576;2022-12-18T06:46:07;29.53;;;16.50;;
13349;SDS011;6744;53.190;6.576;2022-12-18T06:48:33;30.27;;;17.50;;
13349;SDS011;6744;53.190;6.576;2022-12-18T06:50:58;29.77;;;16.30;;
13349;SDS011;6744;53.190;6.576;2022-12-18T06:53:24;30.80;;;17.13;;
13349;SDS011;6744;53.190;6.576;2022-12-18T06:55:50;27.70;;;16.77;;
13349;SDS011;6744;53.190;6.576;2022-12-18T06:58:16;30.07;;;17.07;;
13349;SDS011;6744;53.190;6.576;2022-12-18T07:00:42;28.07;;;15.67;;
13349;SDS011;6744;53.190;6.576;2022-12-18T07:03:07;32.13;;;17.03;;
13349;SDS011;6744;53.190;6.576;2022-12-18T07:05:32;30.30;;;16.07;;
13349;SDS011;6744;53.190;6.576;2022-12-18T07:07:58;28.13;;;16.53;;
13349;SDS011;6744;53.190;6.576;2022-12-18T07:10:24;28.67;;;16.37;;
13349;SDS011;6744;53.190;6.576;2022-12-18T07:12:49;28.27;;;16.43;;
13349;SDS011;6744;53.190;6.576;2022-12-18T07:15:14;27.30;;;16.17;;
13349;SDS011;6744;53.190;6.576;2022-12-18T07:17:40;26.50;;;15.97;;
13349;SDS011;6744;53.190;6.576;2022-12-18T07:20:05;26.57;;;15.97;;
13349;SDS011;6744;53.190;6.576;2022-12-18T07:22:31;25.57;;;15.53;;
13349;SDS011;6744;53.190;6.576;2022-12-18T07:24:56;27.97;;;15.50;;
13349;SDS011;6744;53.190;6.576;2022-12-18T07:27:22;26.87;;;16.00;;
13349;SDS011;6744;53.190;6.576;2022-12-18T07:29:48;24.57;;;14.77;;
13349;SDS011;6744;53.190;6.576;2022-12-18T07:32:13;26.80;;;15.67;;
13349;SDS011;6744;53.190;6.576;2022-12-18T07:34:39;28.00;;;16.60;;
13349;SDS011;6744;53.190;6.576;2022-12-18T07:37:04;27.70;;;15.57;;
13349;SDS011;6744;53.190;6.576;2022-12-18T07:39:29;23.90;;;14.93;;
13349;SDS011;6744;53.190;6.576;2022-12-18T07:41:55;24.97;;;14.63;;
13349;SDS011;6744;53.190;6.576;2022-12-18T07:44:39;25.10;;;15.27;;
13349;SDS011;6744;53.190;6.576;2022-12-18T07:47:05;22.73;;;14.83;;
13349;SDS011;6744;53.190;6.576;2022-12-18T07:49:30;25.93;;;15.63;;
13349;SDS011;6744;53.190;6.576;2022-12-18T07:51:56;22.63;;;13.77;;
13349;SDS011;6744;53.190;6.576;2022-12-18T07:54:22;22.67;;;13.97;;
13349;SDS011;6744;53.190;6.576;2022-12-18T07:56:48;22.00;;;14.67;;
13349;SDS011;6744;53.190;6.576;2022-12-18T07:59:13;23.17;;;14.10;;
13349;SDS011;6744;53.190;6.576;2022-12-18T08:01:39;21.67;;;13.87;;
13349;SDS011;6744;53.190;6.576;2022-12-18T08:04:04;21.40;;;13.37;;
13349;SDS011;6744;53.190;6.576;2022-12-18T08:06:30;20.83;;;12.57;;
13349;SDS011;6744;53.190;6.576;2022-12-18T08:08:55;21.17;;;13.50;;
13349;SDS011;6744;53.190;6.576;2022-12-18T08:11:21;22.73;;;13.67;;
13349;SDS011;6744;53.190;6.576;2022-12-18T08:13:48;23.10;;;14.33;;
13349;SDS011;6744;53.190;6.576;2022-12-18T08:16:13;19.80;;;13.73;;
13349;SDS011;6744;53.190;6.576;2022-12-18T08:18:39;19.00;;;13.20;;
13349;SDS011;6744;53.190;6.576;2022-12-18T08:21:11;22.80;;;13.30;;
13349;SDS011;6744;53.190;6.576;2022-12-18T08:23:37;20.07;;;12.77;;
13349;SDS011;6744;53.190;6.576;2022-12-18T08:26:03;19.87;;;12.80;;
13349;SDS011;6744;53.190;6.576;2022-12-18T08:28:29;20.83;;;13.07;;
13349;SDS011;6744;53.190;6.576;2022-12-18T08:30:54;18.43;;;12.17;;
13349;SDS011;6744;53.190;6.576;2022-12-18T08:33:19;21.43;;;13.97;;
13349;SDS011;6744;53.190;6.576;2022-12-18T08:35:45;20.33;;;13.37;;
13349;SDS011;6744;53.190;6.576;2022-12-18T08:38:10;21.57;;;13.83;;
13349;SDS011;6744;53.190;6.576;2022-12-18T08:40:35;20.47;;;13.80;;
13349;SDS011;6744;53.190;6.576;2022-12-18T08:43:01;19.40;;;13.77;;
13349;SDS011;6744;53.190;6.576;2022-12-18T08:45:44;20.43;;;14.20;;
13349;SDS011;6744;53.190;6.576;2022-12-18T08:48:10;20.23;;;13.40;;
13349;SDS011;6744;53.190;6.576;2022-12-18T08:50:35;21.73;;;14.33;;
13349;SDS011;6744;53.190;6.576;2022-12-18T08:53:01;21.77;;;14.27;;
13349;SDS011;6744;53.190;6.576;2022-12-18T08:55:26;19.80;;;13.77;;
13349;SDS011;6744;53.190;6.576;2022-12-18T08:57:51;19.60;;;14.10;;
13349;SDS011;6744;53.190;6.576;2022-12-18T09:00:17;21.13;;;14.10;;
13349;SDS011;6744;53.190;6.576;2022-12-18T09:02:42;20.80;;;14.83;;
13349;SDS011;6744;53.190;6.576;2022-12-18T09:05:08;22.43;;;14.70;;
13349;SDS011;6744;53.190;6.576;2022-12-18T09:07:33;19.23;;;13.93;;
13349;SDS011;6744;53.190;6.576;2022-12-18T09:09:59;21.70;;;14.50;;
13349;SDS011;6744;53.190;6.576;2022-12-18T09:12:24;22.90;;;13.50;;
13349;SDS011;6744;53.190;6.576;2022-12-18T09:14:50;22.23;;;14.40;;
13349;SDS011;6744;53.190;6.576;2022-12-18T09:17:15;20.83;;;14.13;;
13349;SDS011;6744;53.190;6.576;2022-12-18T09:19:40;18.67;;;13.07;;
13349;SDS011;6744;53.190;6.576;2022-12-18T09:22:06;20.73;;;13.47;;
13349;SDS011;6744;53.190;6.576;2022-12-18T09:24:31;19.40;;;13.40;;
13349;SDS011;6744;53.190;6.576;2022-12-18T09:26:57;16.57;;;12.27;;
13349;SDS011;6744;53.190;6.576;2022-12-18T09:29:22;17.93;;;13.27;;
13349;SDS011;6744;53.190;6.576;2022-12-18T09:31:48;18.00;;;12.60;;
13349;SDS011;6744;53.190;6.576;2022-12-18T09:34:14;17.20;;;12.83;;
13349;SDS011;6744;53.190;6.576;2022-12-18T09:36:40;17.60;;;13.10;;
13349;SDS011;6744;53.190;6.576;2022-12-18T09:39:05;18.07;;;13.10;;
13349;SDS011;6744;53.190;6.576;2022-12-18T09:41:37;16.47;;;12.53;;
13349;SDS011;6744;53.190;6.576;2022-12-18T09:44:14;19.07;;;12.70;;
13349;SDS011;6744;53.190;6.576;2022-12-18T09:47:02;15.20;;;11.93;;
13349;SDS011;6744;53.190;6.576;2022-12-18T09:49:34;15.77;;;11.37;;
13349;SDS011;6744;53.190;6.576;2022-12-18T09:52:11;14.97;;;11.40;;
13349;SDS011;6744;53.190;6.576;2022-12-18T09:54:44;17.00;;;12.10;;
13349;SDS011;6744;53.190;6.576;2022-12-18T09:57:14;18.93;;;11.23;;
13349;SDS011;6744;53.190;6.576;2022-12-18T09:59:46;15.57;;;11.47;;
13349;SDS011;6744;53.190;6.576;2022-12-18T10:02:21;15.33;;;10.67;;
13349;SDS011;6744;53.190;6.576;2022-12-18T10:04:51;13.33;;;10.27;;
13349;SDS011;6744;53.190;6.576;2022-12-18T10:07:26;14.43;;;9.97;;
13349;SDS011;6744;53.190;6.576;2022-12-18T10:10:01;12.83;;;10.23;;
13349;SDS011;6744;53.190;6.576;2022-12-18T10:15:36;13.83;;;9.90;;
13349;SDS011;6744;53.190;6.576;2022-12-18T10:17:56;13.03;;;9.97;;
13349;SDS011;6744;53.190;6.576;2022-12-18T10:23:18;14.17;;;9.30;;
13349;SDS011;6744;53.190;6.576;2022-12-18T10:28:27;11.43;;;8.30;;
13349;SDS011;6744;53.190;6.576;2022-12-18T10:30:54;11.73;;;8.60;;
13349;SDS011;6744;53.190;6.576;2022-12-18T10:33:21;12.50;;;8.47;;
13349;SDS011;6744;53.190;6.576;2022-12-18T10:35:48;12.63;;;8.90;;
13349;SDS011;6744;53.190;6.576;2022-12-18T10:43:31;11.30;;;8.30;;
13349;SDS011;6744;53.190;6.576;2022-12-18T10:51:16;10.37;;;7.73;;
13349;SDS011;6744;53.190;6.576;2022-12-18T10:54:02;10.27;;;8.00;;
13349;SDS011;6744;53.190;6.576;2022-12-18T10:56:30;9.87;;;7.30;;
13349;SDS011;6744;53.190;6.576;2022-12-18T10:59:01;9.97;;;7.20;;
13349;SDS011;6744;53.190;6.576;2022-12-18T11:04:13;9.43;;;6.90;;
13349;SDS011;6744;53.190;6.576;2022-12-18T11:09:31;8.47;;;7.10;;
13349;SDS011;6744;53.190;6.576;2022-12-18T11:11:58;9.23;;;6.40;;
13349;SDS011;6744;53.190;6.576;2022-12-18T11:17:19;8.50;;;6.00;;
13349;SDS011;6744;53.190;6.576;2022-12-18T11:19:59;7.83;;;6.33;;
13349;SDS011;6744;53.190;6.576;2022-12-18T11:25:35;6.77;;;6.00;;
13349;SDS011;6744;53.190;6.576;2022-12-18T11:27:50;9.17;;;6.43;;
13349;SDS011;6744;53.190;6.576;2022-12-18T11:30:21;8.20;;;6.47;;
13349;SDS011;6744;53.190;6.576;2022-12-18T11:33:19;7.30;;;5.83;;
13349;SDS011;6744;53.190;6.576;2022-12-18T11:35:53;8.00;;;5.73;;
13349;SDS011;6744;53.190;6.576;2022-12-18T11:38:26;7.70;;;5.70;;
13349;SDS011;6744;53.190;6.576;2022-12-18T11:40:58;7.10;;;5.60;;
13349;SDS011;6744;53.190;6.576;2022-12-18T11:43:29;7.83;;;5.90;;
13349;SDS011;6744;53.190;6.576;2022-12-18T11:46:00;7.07;;;5.37;;
13349;SDS011;6744;53.190;6.576;2022-12-18T11:50:58;7.30;;;5.40;;
13349;SDS011;6744;53.190;6.576;2022-12-18T11:53:25;7.90;;;5.30;;
13349;SDS011;6744;53.190;6.576;2022-12-18T12:18:04;7.17;;;5.80;;
13349;SDS011;6744;53.190;6.576;2022-12-18T12:20:42;7.30;;;5.77;;
13349;SDS011;6744;53.190;6.576;2022-12-18T12:26:01;6.37;;;5.00;;
13349;SDS011;6744;53.190;6.576;2022-12-18T12:31:24;7.53;;;5.80;;
13349;SDS011;6744;53.190;6.576;2022-12-18T12:39:38;6.50;;;4.87;;
13349;SDS011;6744;53.190;6.576;2022-12-18T12:42:10;6.60;;;5.37;;
13349;SDS011;6744;53.190;6.576;2022-12-18T12:45:01;5.70;;;5.10;;
13349;SDS011;6744;53.190;6.576;2022-12-18T12:47:31;6.53;;;4.90;;
13349;SDS011;6744;53.190;6.576;2022-12-18T12:49:59;5.83;;;4.70;;
13349;SDS011;6744;53.190;6.576;2022-12-18T12:52:35;5.30;;;4.50;;
13349;SDS011;6744;53.190;6.576;2022-12-18T12:55:03;7.13;;;4.63;;
13349;SDS011;6744;53.190;6.576;2022-12-18T12:57:34;5.80;;;4.80;;
13349;SDS011;6744;53.190;6.576;2022-12-18T13:00:09;5.30;;;4.30;;
13349;SDS011;6744;53.190;6.576;2022-12-18T13:02:39;6.37;;;4.63;;
13349;SDS011;6744;53.190;6.576;2022-12-18T13:10:50;5.63;;;4.63;;
13349;SDS011;6744;53.190;6.576;2022-12-18T13:13:53;6.83;;;4.70;;
13349;SDS011;6744;53.190;6.576;2022-12-18T13:16:21;6.47;;;4.47;;
13349;SDS011;6744;53.190;6.576;2022-12-18T13:18:48;6.03;;;4.30;;
13349;SDS011;6744;53.190;6.576;2022-12-18T13:21:21;5.60;;;4.33;;
13349;SDS011;6744;53.190;6.576;2022-12-18T13:23:49;6.80;;;4.33;;
13349;SDS011;6744;53.190;6.576;2022-12-18T13:34:24;7.00;;;4.37;;
13349;SDS011;6744;53.190;6.576;2022-12-18T13:36:50;5.13;;;4.33;;
13349;SDS011;6744;53.190;6.576;2022-12-18T13:41:53;5.33;;;4.47;;
13349;SDS011;6744;53.190;6.576;2022-12-18T13:44:38;5.53;;;4.27;;
13349;SDS011;6744;53.190;6.576;2022-12-18T13:47:05;6.27;;;4.73;;
13349;SDS011;6744;53.190;6.576;2022-12-18T13:49:50;6.57;;;4.93;;
13349;SDS011;6744;53.190;6.576;2022-12-18T13:52:20;6.00;;;4.70;;
13349;SDS011;6744;53.190;6.576;2022-12-18T13:54:51;6.47;;;4.60;;
13349;SDS011;6744;53.190;6.576;2022-12-18T13:57:37;7.80;;;4.83;;
13349;SDS011;6744;53.190;6.576;2022-12-18T14:02:46;5.37;;;4.60;;
13349;SDS011;6744;53.190;6.576;2022-12-18T14:05:25;5.73;;;4.27;;
13349;SDS011;6744;53.190;6.576;2022-12-18T14:07:54;6.07;;;4.80;;
13349;SDS011;6744;53.190;6.576;2022-12-18T14:10:21;5.80;;;4.57;;
13349;SDS011;6744;53.190;6.576;2022-12-18T14:12:47;6.10;;;5.10;;
13349;SDS011;6744;53.190;6.576;2022-12-18T14:17:55;6.03;;;4.87;;
13349;SDS011;6744;53.190;6.576;2022-12-18T14:20:25;5.90;;;4.93;;
13349;SDS011;6744;53.190;6.576;2022-12-18T14:22:52;6.30;;;4.87;;
13349;SDS011;6744;53.190;6.576;2022-12-18T14:25:19;6.70;;;5.37;;
13349;SDS011;6744;53.190;6.576;2022-12-18T14:27:47;6.97;;;5.23;;
13349;SDS011;6744;53.190;6.576;2022-12-18T14:30:57;6.03;;;5.27;;
13349;SDS011;6744;53.190;6.576;2022-12-18T14:33:11;6.57;;;5.00;;
13349;SDS011;6744;53.190;6.576;2022-12-18T14:40:47;7.73;;;5.90;;
13349;SDS011;6744;53.190;6.576;2022-12-18T14:43:12;7.07;;;5.60;;
13349;SDS011;6744;53.190;6.576;2022-12-18T14:45:47;7.73;;;5.67;;
13349;SDS011;6744;53.190;6.576;2022-12-18T14:48:17;6.07;;;5.23;;
13349;SDS011;6744;53.190;6.576;2022-12-18T14:50:43;7.33;;;5.30;;
13349;SDS011;6744;53.190;6.576;2022-12-18T14:53:19;7.27;;;5.60;;
13349;SDS011;6744;53.190;6.576;2022-12-18T14:55:46;7.17;;;5.87;;
13349;SDS011;6744;53.190;6.576;2022-12-18T14:58:13;6.77;;;5.07;;
13349;SDS011;6744;53.190;6.576;2022-12-18T15:00:41;8.53;;;6.00;;
13349;SDS011;6744;53.190;6.576;2022-12-18T15:03:07;8.83;;;6.10;;
13349;SDS011;6744;53.190;6.576;2022-12-18T15:05:33;7.47;;;6.07;;
13349;SDS011;6744;53.190;6.576;2022-12-18T15:07:59;6.87;;;5.60;;
13349;SDS011;6744;53.190;6.576;2022-12-18T15:10:29;6.50;;;5.60;;
13349;SDS011;6744;53.190;6.576;2022-12-18T15:18:03;8.50;;;6.07;;
13349;SDS011;6744;53.190;6.576;2022-12-18T15:20:32;7.13;;;5.80;;
13349;SDS011;6744;53.190;6.576;2022-12-18T15:23:21;7.93;;;6.43;;
13349;SDS011;6744;53.190;6.576;2022-12-18T15:25:58;7.73;;;6.17;;
13349;SDS011;6744;53.190;6.576;2022-12-18T15:28:34;6.63;;;5.90;;
13349;SDS011;6744;53.190;6.576;2022-12-18T15:31:03;9.87;;;6.10;;
13349;SDS011;6744;53.190;6.576;2022-12-18T15:33:36;8.40;;;6.43;;
13349;SDS011;6744;53.190;6.576;2022-12-18T15:36:04;7.90;;;6.70;;
13349;SDS011;6744;53.190;6.576;2022-12-18T15:38:33;7.50;;;6.60;;
13349;SDS011;6744;53.190;6.576;2022-12-18T15:40:59;8.13;;;6.40;;
13349;SDS011;6744;53.190;6.576;2022-12-18T15:43:24;7.93;;;6.53;;
13349;SDS011;6744;53.190;6.576;2022-12-18T15:46:19;7.90;;;6.03;;
13349;SDS011;6744;53.190;6.576;2022-12-18T15:48:49;8.07;;;6.10;;
13349;SDS011;6744;53.190;6.576;2022-12-18T15:51:28;7.73;;;6.47;;
13349;SDS011;6744;53.190;6.576;2022-12-18T15:53:58;6.97;;;6.10;;
13349;SDS011;6744;53.190;6.576;2022-12-18T15:56:24;9.17;;;6.80;;
13349;SDS011;6744;53.190;6.576;2022-12-18T15:59:13;7.97;;;6.07;;
13349;SDS011;6744;53.190;6.576;2022-12-18T16:01:39;8.77;;;6.93;;
13349;SDS011;6744;53.190;6.576;2022-12-18T16:04:06;8.23;;;6.10;;
13349;SDS011;6744;53.190;6.576;2022-12-18T16:06:31;8.50;;;7.57;;
13349;SDS011;6744;53.190;6.576;2022-12-18T16:08:57;8.80;;;6.70;;
13349;SDS011;6744;53.190;6.576;2022-12-18T16:14:11;10.33;;;7.27;;
13349;SDS011;6744;53.190;6.576;2022-12-18T16:16:41;8.80;;;6.63;;
13349;SDS011;6744;53.190;6.576;2022-12-18T16:19:06;9.40;;;6.70;;
13349;SDS011;6744;53.190;6.576;2022-12-18T16:21:32;10.50;;;7.40;;
13349;SDS011;6744;53.190;6.576;2022-12-18T16:23:57;9.03;;;7.10;;
13349;SDS011;6744;53.190;6.576;2022-12-18T16:26:22;8.80;;;7.33;;
13349;SDS011;6744;53.190;6.576;2022-12-18T16:28:48;7.60;;;6.30;;
13349;SDS011;6744;53.190;6.576;2022-12-18T16:31:13;9.63;;;7.30;;
13349;SDS011;6744;53.190;6.576;2022-12-18T16:33:39;8.50;;;7.17;;
13349;SDS011;6744;53.190;6.576;2022-12-18T16:36:04;8.83;;;7.13;;
13349;SDS011;6744;53.190;6.576;2022-12-18T16:38:30;9.07;;;7.10;;
13349;SDS011;6744;53.190;6.576;2022-12-18T16:40:55;9.47;;;7.33;;
13349;SDS011;6744;53.190;6.576;2022-12-18T16:43:39;9.43;;;7.60;;
13349;SDS011;6744;53.190;6.576;2022-12-18T16:46:04;9.03;;;7.40;;
13349;SDS011;6744;53.190;6.576;2022-12-18T16:48:29;9.57;;;7.43;;
13349;SDS011;6744;53.190;6.576;2022-12-18T16:50:59;8.57;;;7.10;;
13349;SDS011;6744;53.190;6.576;2022-12-18T16:53:29;9.60;;;6.80;;
13349;SDS011;6744;53.190;6.576;2022-12-18T16:55:55;8.33;;;6.83;;
13349;SDS011;6744;53.190;6.576;2022-12-18T16:58:21;8.63;;;7.07;;
13349;SDS011;6744;53.190;6.576;2022-12-18T17:00:46;8.50;;;6.83;;